Time;durP1;ratioP1;P1;durP2;ratioP2;P2;SDS_P1;SDS_P2;PMS_P1;PMS_P2;Temp;Humidity;BMP_temperature;BMP_pressure;BME280_temperature;BME280_humidity;BME280_pressure;Samples;Min_cycle;Max_cycle;Signal;HPM_P1;HPM_P2
2024/03/16 00:02:13;;;;;;;0.53;0.53;;;;;;;;;;5006228;28;20242;-75
2024/03/16 00:05:00;;;;;;;0.30;0.30;;;;;;;;;;4997147;28;20312;-76
2024/03/16 00:08:17;;;;;;;0.70;0.70;;;;;;;;;;5004745;28;20227;-76
2024/03/16 00:11:12;;;;;;;0.30;0.30;;;;;;;;;;5014183;28;20243;-75
2024/03/16 00:13:42;;;;;;;0.30;0.30;;;;;;;;;;5003068;28;20652;-75
2024/03/16 00:16:13;;;;;;;0.30;0.30;;;;;;;;;;5006547;28;20231;-75
2024/03/16 00:18:43;;;;;;;0.30;0.30;;;;;;;;;;5003778;28;20233;-78
2024/03/16 00:21:11;;;;;;;0.30;0.30;;;;;;;;;;4986626;28;20248;-75
2024/03/16 00:23:40;;;;;;;0.30;0.30;;;;;;;;;;4985955;28;20626;-75
2024/03/16 00:26:11;;;;;;;0.30;0.30;;;;;;;;;;5001238;28;20306;-75
2024/03/16 00:28:41;;;;;;;0.30;0.30;;;;;;;;;;5020365;28;22569;-76
2024/03/16 00:31:10;;;;;;;0.20;0.20;;;;;;;;;;5021764;28;20282;-76
2024/03/16 00:33:49;;;;;;;0.30;0.30;;;;;;;;;;5028833;28;20240;-76
2024/03/16 00:36:21;;;;;;;0.20;0.20;;;;;;;;;;5026874;28;20243;-76
2024/03/16 00:39:01;;;;;;;0.30;0.30;;;;;;;;;;5016939;28;20254;-76
2024/03/16 00:41:42;;;;;;;0.30;0.30;;;;;;;;;;5024666;28;20243;-76
2024/03/16 00:44:44;;;;;;;0.30;0.30;;;;;;;;;;5010294;28;20227;-76
2024/03/16 00:47:21;;;;;;;0.30;0.30;;;;;;;;;;5006454;28;20223;-76
2024/03/16 00:50:00;;;;;;;0.30;0.30;;;;;;;;;;5022061;28;20691;-76
2024/03/16 00:52:34;;;;;;;0.30;0.30;;;;;;;;;;5023824;28;20250;-76
2024/03/16 00:55:06;;;;;;;0.30;0.30;;;;;;;;;;5019513;28;20220;-76
2024/03/16 00:57:56;;;;;;;0.30;0.30;;;;;;;;;;4991405;28;20232;-76
2024/03/16 01:00:34;;;;;;;0.30;0.30;;;;;;;;;;5027413;28;20224;-76
2024/03/16 01:03:05;;;;;;;0.30;0.30;;;;;;;;;;5015973;28;20307;-76
2024/03/16 01:05:38;;;;;;;0.30;0.30;;;;;;;;;;5033381;28;20227;-76
2024/03/16 01:08:23;;;;;;;0.60;0.60;;;;;;;;;;4995169;28;20227;-76
2024/03/16 01:11:05;;;;;;;0.30;0.30;;;;;;;;;;5012144;28;20223;-77
2024/03/16 01:13:40;;;;;;;0.30;0.30;;;;;;;;;;5028707;28;20232;-77
2024/03/16 01:16:13;;;;;;;0.27;0.27;;;;;;;;;;5020235;28;20238;-76
2024/03/16 01:18:46;;;;;;;0.30;0.30;;;;;;;;;;5030137;28;20228;-77
2024/03/16 01:21:21;;;;;;;0.30;0.30;;;;;;;;;;5028998;28;20224;-76
2024/03/16 01:24:01;;;;;;;0.40;0.40;;;;;;;;;;5009959;28;20717;-76
2024/03/16 01:26:41;;;;;;;0.30;0.30;;;;;;;;;;5029848;28;20288;-76
2024/03/16 01:29:15;;;;;;;0.30;0.30;;;;;;;;;;5009348;28;20319;-76
2024/03/16 01:31:49;;;;;;;0.30;0.30;;;;;;;;;;5024547;28;20732;-76
2024/03/16 01:34:33;;;;;;;0.30;0.30;;;;;;;;;;5008244;28;20224;-77
2024/03/16 01:37:06;;;;;;;0.30;0.30;;;;;;;;;;5012069;28;20234;-76
2024/03/16 01:39:58;;;;;;;0.30;0.30;;;;;;;;;;4988782;28;20224;-78
2024/03/16 01:42:45;;;;;;;0.30;0.30;;;;;;;;;;5011530;28;20250;-76
2024/03/16 01:45:28;;;;;;;0.20;0.20;;;;;;;;;;5026575;28;20305;-76
2024/03/16 01:48:10;;;;;;;0.30;0.30;;;;;;;;;;5023373;28;20323;-76
2024/03/16 01:51:12;;;;;;;0.30;0.30;;;;;;;;;;5038981;28;20235;-76
2024/03/16 01:54:30;;;;;;;0.30;0.30;;;;;;;;;;5021442;28;20232;-77
2024/03/16 01:57:12;;;;;;;0.30;0.30;;;;;;;;;;5003932;28;20228;-76
2024/03/16 02:00:11;;;;;;;0.30;0.30;;;;;;;;;;5007873;28;20314;-76
2024/03/16 02:02:45;;;;;;;0.30;0.30;;;;;;;;;;5018106;28;20259;-77
2024/03/16 02:05:46;;;;;;;0.30;0.30;;;;;;;;;;5034866;28;20235;-76
2024/03/16 02:08:25;;;;;;;0.30;0.30;;;;;;;;;;5020793;28;20313;-76
2024/03/16 02:10:57;;;;;;;0.30;0.30;;;;;;;;;;5017189;28;20603;-76
2024/03/16 02:13:40;;;;;;;0.30;0.30;;;;;;;;;;5010712;28;20655;-76
2024/03/16 02:16:11;;;;;;;0.30;0.30;;;;;;;;;;5016924;28;20723;-75
2024/03/16 02:18:51;;;;;;;0.30;0.30;;;;;;;;;;5007263;28;20234;-75
2024/03/16 02:21:36;;;;;;;0.30;0.30;;;;;;;;;;5010065;28;20219;-75
2024/03/16 02:24:18;;;;;;;0.30;0.30;;;;;;;;;;5008234;28;20223;-75
2024/03/16 02:26:56;;;;;;;1.13;1.03;;;;;;;;;;5029278;28;20228;-76
2024/03/16 02:29:35;;;;;;;0.30;0.30;;;;;;;;;;5004924;28;20223;-77
2024/03/16 02:32:47;;;;;;;0.30;0.30;;;;;;;;;;5010152;28;20287;-77
2024/03/16 02:35:28;;;;;;;0.30;0.30;;;;;;;;;;5017009;28;20699;-75
2024/03/16 02:37:58;;;;;;;0.30;0.30;;;;;;;;;;5017863;28;20921;-75
2024/03/16 02:40:28;;;;;;;0.40;0.40;;;;;;;;;;5005722;28;20600;-75
2024/03/16 02:42:57;;;;;;;0.83;0.83;;;;;;;;;;5026978;28;20224;-75
2024/03/16 02:45:27;;;;;;;0.40;0.40;;;;;;;;;;4993998;28;20250;-76
2024/03/16 02:47:59;;;;;;;0.30;0.30;;;;;;;;;;5035154;28;20240;-75
2024/03/16 02:50:30;;;;;;;0.30;0.30;;;;;;;;;;5045524;28;20258;-75
2024/03/16 02:52:59;;;;;;;0.80;0.80;;;;;;;;;;5037797;28;20309;-75
2024/03/16 02:55:29;;;;;;;0.30;0.30;;;;;;;;;;5026478;28;20232;-78
2024/03/16 02:58:01;;;;;;;0.53;0.53;;;;;;;;;;5015668;28;20257;-75
2024/03/16 03:00:33;;;;;;;0.30;0.30;;;;;;;;;;5028290;28;20231;-76
2024/03/16 03:03:06;;;;;;;0.33;0.33;;;;;;;;;;5026664;28;20224;-75
2024/03/16 03:05:36;;;;;;;0.60;0.60;;;;;;;;;;4992892;28;20278;-75
2024/03/16 03:08:09;;;;;;;1.87;1.73;;;;;;;;;;5013523;28;20232;-75
2024/03/16 03:10:41;;;;;;;0.40;0.40;;;;;;;;;;5034830;28;20593;-75
2024/03/16 03:13:12;;;;;;;0.40;0.40;;;;;;;;;;5021938;28;20315;-76
2024/03/16 03:15:43;;;;;;;1.90;1.80;;;;;;;;;;5012354;28;20609;-75
2024/03/16 03:18:13;;;;;;;1.13;1.13;;;;;;;;;;5025655;28;20317;-75
2024/03/16 03:20:41;;;;;;;0.77;0.77;;;;;;;;;;5019398;28;20608;-75
2024/03/16 03:23:15;;;;;;;0.60;0.60;;;;;;;;;;5024205;28;20235;-75
2024/03/16 03:25:48;;;;;;;0.30;0.30;;;;;;;;;;5019679;28;20603;-75
2024/03/16 03:28:18;;;;;;;1.10;1.10;;;;;;;;;;5026525;28;20712;-76
2024/03/16 03:30:49;;;;;;;1.70;1.60;;;;;;;;;;5008771;28;20232;-76
2024/03/16 03:33:18;;;;;;;1.03;1.03;;;;;;;;;;5023872;28;20315;-75
2024/03/16 03:35:49;;;;;;;0.30;0.30;;;;;;;;;;5031675;28;20692;-75
2024/03/16 03:38:19;;;;;;;0.50;0.50;;;;;;;;;;5023708;28;20235;-75
2024/03/16 03:40:50;;;;;;;0.43;0.43;;;;;;;;;;5025594;28;20227;-75
2024/03/16 03:43:36;;;;;;;0.50;0.50;;;;;;;;;;5027994;28;20224;-75
2024/03/16 03:46:16;;;;;;;0.53;0.53;;;;;;;;;;5023742;28;20249;-75
2024/03/16 03:49:25;;;;;;;0.53;0.53;;;;;;;;;;5007253;28;20231;-76
2024/03/16 03:52:11;;;;;;;0.30;0.30;;;;;;;;;;5015967;28;20259;-75
2024/03/16 03:54:46;;;;;;;0.30;0.30;;;;;;;;;;5016557;28;20227;-75
2024/03/16 03:57:31;;;;;;;0.30;0.30;;;;;;;;;;5025512;28;20347;-76
2024/03/16 04:00:24;;;;;;;0.70;0.70;;;;;;;;;;5023872;28;20231;-75
2024/03/16 04:03:34;;;;;;;0.30;0.30;;;;;;;;;;5017297;28;20648;-75
2024/03/16 04:06:09;;;;;;;0.30;0.30;;;;;;;;;;4994725;28;20752;-75
2024/03/16 04:08:53;;;;;;;0.50;0.50;;;;;;;;;;5018557;28;20329;-75
2024/03/16 04:11:48;;;;;;;0.30;0.30;;;;;;;;;;4999356;28;20234;-75
2024/03/16 04:14:19;;;;;;;0.40;0.40;;;;;;;;;;5010976;28;20223;-77
2024/03/16 04:16:48;;;;;;;0.30;0.30;;;;;;;;;;5027657;28;20281;-75
2024/03/16 04:19:24;;;;;;;0.30;0.30;;;;;;;;;;5021397;28;20250;-75
2024/03/16 04:22:18;;;;;;;0.20;0.20;;;;;;;;;;5012162;28;20227;-76
2024/03/16 04:24:48;;;;;;;0.30;0.30;;;;;;;;;;5020974;28;20409;-75
2024/03/16 04:27:27;;;;;;;0.30;0.30;;;;;;;;;;5000577;28;20223;-76
2024/03/16 04:30:09;;;;;;;0.30;0.30;;;;;;;;;;4972782;28;20335;-75
2024/03/16 04:32:42;;;;;;;0.63;0.63;;;;;;;;;;5028818;28;20673;-75
2024/03/16 04:35:16;;;;;;;0.40;0.40;;;;;;;;;;5016138;28;20223;-75
2024/03/16 04:38:07;;;;;;;0.30;0.30;;;;;;;;;;5007229;28;20326;-75
2024/03/16 04:40:54;;;;;;;1.40;1.30;;;;;;;;;;5019913;28;20669;-75
2024/03/16 04:43:46;;;;;;;0.20;0.20;;;;;;;;;;5003267;28;20231;-75
2024/03/16 04:46:15;;;;;;;0.30;0.30;;;;;;;;;;5002902;28;20234;-76
2024/03/16 04:48:48;;;;;;;0.37;0.37;;;;;;;;;;5024989;28;20262;-75
2024/03/16 04:51:22;;;;;;;0.30;0.30;;;;;;;;;;5020518;28;20321;-75
2024/03/16 04:54:09;;;;;;;0.30;0.30;;;;;;;;;;5023219;28;20589;-76
2024/03/16 04:56:57;;;;;;;0.87;0.87;;;;;;;;;;5025679;28;20259;-76
2024/03/16 04:59:41;;;;;;;0.30;0.30;;;;;;;;;;5026774;28;20243;-75
2024/03/16 05:02:18;;;;;;;0.30;0.30;;;;;;;;;;5020152;28;20636;-75
2024/03/16 05:05:06;;;;;;;0.30;0.30;;;;;;;;;;5032348;28;20300;-75
2024/03/16 05:07:59;;;;;;;0.30;0.30;;;;;;;;;;5015127;28;20245;-77
2024/03/16 05:10:43;;;;;;;0.77;0.77;;;;;;;;;;5025395;28;20231;-75
2024/03/16 05:13:33;;;;;;;0.30;0.30;;;;;;;;;;5032598;28;20292;-75
2024/03/16 05:16:20;;;;;;;0.50;0.50;;;;;;;;;;4999569;28;20318;-75
2024/03/16 05:19:18;;;;;;;0.30;0.30;;;;;;;;;;5026975;28;20251;-75
2024/03/16 05:22:07;;;;;;;0.30;0.30;;;;;;;;;;5013712;28;20717;-75
2024/03/16 05:25:45;;;;;;;0.30;0.30;;;;;;;;;;5016640;28;20214;-75
2024/03/16 05:28:18;;;;;;;0.50;0.50;;;;;;;;;;5035484;28;20251;-76
2024/03/16 05:31:02;;;;;;;0.30;0.30;;;;;;;;;;5029470;28;20314;-77
2024/03/16 05:33:54;;;;;;;0.30;0.30;;;;;;;;;;4994288;28;20235;-77
2024/03/16 05:36:40;;;;;;;0.60;0.60;;;;;;;;;;5030224;28;20212;-75
2024/03/16 05:39:29;;;;;;;0.80;0.80;;;;;;;;;;4993088;28;20778;-75
2024/03/16 05:42:22;;;;;;;0.30;0.30;;;;;;;;;;4999531;28;20224;-75
2024/03/16 05:45:30;;;;;;;0.30;0.30;;;;;;;;;;5030831;28;20740;-75
2024/03/16 05:48:24;;;;;;;0.30;0.30;;;;;;;;;;5006920;28;20811;-74
2024/03/16 05:51:22;;;;;;;0.30;0.30;;;;;;;;;;5033190;28;20242;-75
2024/03/16 05:54:04;;;;;;;0.30;0.30;;;;;;;;;;5024444;28;20709;-75
2024/03/16 05:56:52;;;;;;;0.30;0.30;;;;;;;;;;5025671;28;20227;-75
2024/03/16 06:00:03;;;;;;;0.30;0.30;;;;;;;;;;5023807;28;20231;-75
2024/03/16 06:03:04;;;;;;;0.30;0.30;;;;;;;;;;5012890;28;20242;-75
2024/03/16 06:05:38;;;;;;;0.30;0.30;;;;;;;;;;5008197;28;20231;-75
2024/03/16 06:08:14;;;;;;;0.20;0.20;;;;;;;;;;4999663;28;20235;-75
2024/03/16 06:10:43;;;;;;;0.30;0.30;;;;;;;;;;5017213;28;20235;-75
2024/03/16 06:13:13;;;;;;;0.20;0.20;;;;;;;;;;5010472;28;20223;-75
2024/03/16 06:15:44;;;;;;;0.30;0.30;;;;;;;;;;5004569;28;20268;-75
2024/03/16 06:18:14;;;;;;;0.30;0.30;;;;;;;;;;5001625;28;20314;-75
2024/03/16 06:20:43;;;;;;;0.30;0.30;;;;;;;;;;5003509;28;20241;-75
2024/03/16 06:23:13;;;;;;;0.30;0.30;;;;;;;;;;4997534;28;20324;-75
2024/03/16 06:25:48;;;;;;;0.20;0.20;;;;;;;;;;5024249;28;20320;-75
2024/03/16 06:28:21;;;;;;;0.30;0.30;;;;;;;;;;5026649;28;20635;-75
2024/03/16 06:30:55;;;;;;;0.30;0.30;;;;;;;;;;5011125;28;20310;-75
2024/03/16 06:33:27;;;;;;;0.30;0.30;;;;;;;;;;5021475;28;20224;-75
2024/03/16 06:35:56;;;;;;;0.20;0.20;;;;;;;;;;5011027;28;20236;-75
2024/03/16 06:38:29;;;;;;;0.30;0.30;;;;;;;;;;5022317;28;20618;-75
2024/03/16 06:40:57;;;;;;;0.30;0.30;;;;;;;;;;5019036;28;20232;-76
2024/03/16 06:43:27;;;;;;;0.30;0.30;;;;;;;;;;5016990;28;20700;-75
2024/03/16 06:45:56;;;;;;;0.30;0.30;;;;;;;;;;4996808;28;20233;-75
2024/03/16 06:48:29;;;;;;;0.20;0.20;;;;;;;;;;5009658;28;20244;-75
2024/03/16 06:51:00;;;;;;;0.30;0.30;;;;;;;;;;5027749;28;20235;-75
2024/03/16 06:53:29;;;;;;;0.20;0.20;;;;;;;;;;5029841;28;20220;-75
2024/03/16 06:55:58;;;;;;;0.30;0.30;;;;;;;;;;5024332;28;20247;-75
2024/03/16 06:58:35;;;;;;;0.30;0.30;;;;;;;;;;5024997;28;20232;-75
2024/03/16 07:01:32;;;;;;;0.30;0.30;;;;;;;;;;5017882;28;20232;-76
2024/03/16 07:04:10;;;;;;;0.30;0.30;;;;;;;;;;5011959;28;20230;-75
2024/03/16 07:07:05;;;;;;;0.30;0.30;;;;;;;;;;5005992;28;20724;-75
2024/03/16 07:09:47;;;;;;;0.30;0.30;;;;;;;;;;5021354;28;20228;-75
2024/03/16 07:12:16;;;;;;;0.27;0.27;;;;;;;;;;4999970;28;20645;-75
2024/03/16 07:14:43;;;;;;;0.30;0.30;;;;;;;;;;5002942;28;20232;-75
2024/03/16 07:17:10;;;;;;;0.30;0.30;;;;;;;;;;5001799;28;20668;-75
2024/03/16 07:19:38;;;;;;;0.30;0.30;;;;;;;;;;5002343;28;20311;-75
2024/03/16 07:22:09;;;;;;;0.30;0.30;;;;;;;;;;5001117;28;20248;-75
2024/03/16 07:24:36;;;;;;;0.30;0.30;;;;;;;;;;5003607;28;20686;-75
2024/03/16 07:27:05;;;;;;;0.30;0.30;;;;;;;;;;4982406;28;20736;-75
2024/03/16 07:29:31;;;;;;;0.30;0.30;;;;;;;;;;5006385;28;20225;-75
2024/03/16 07:31:59;;;;;;;0.30;0.30;;;;;;;;;;5004961;28;20296;-74
2024/03/16 07:34:26;;;;;;;0.20;0.20;;;;;;;;;;4998380;28;20755;-75
2024/03/16 07:36:53;;;;;;;0.30;0.30;;;;;;;;;;4989549;28;20235;-75
2024/03/16 07:39:30;;;;;;;0.30;0.30;;;;;;;;;;5006610;28;20239;-74
2024/03/16 07:41:59;;;;;;;0.30;0.30;;;;;;;;;;4997799;28;20701;-75
2024/03/16 07:44:40;;;;;;;0.60;0.60;;;;;;;;;;4983829;28;20689;-75
2024/03/16 07:47:08;;;;;;;0.30;0.30;;;;;;;;;;5026432;28;20235;-76
2024/03/16 07:49:35;;;;;;;0.50;0.50;;;;;;;;;;5028755;28;20310;-76
2024/03/16 07:52:03;;;;;;;0.30;0.30;;;;;;;;;;5015885;28;20705;-76
2024/03/16 07:54:31;;;;;;;1.13;1.07;;;;;;;;;;5025345;28;20219;-75
2024/03/16 07:56:59;;;;;;;0.30;0.30;;;;;;;;;;5008159;28;20259;-76
2024/03/16 07:59:25;;;;;;;0.30;0.30;;;;;;;;;;5014796;28;20231;-75
2024/03/16 08:01:53;;;;;;;0.30;0.30;;;;;;;;;;5021884;28;20232;-76
2024/03/16 08:04:20;;;;;;;0.30;0.30;;;;;;;;;;5026389;28;20243;-77
2024/03/16 08:06:51;;;;;;;0.30;0.30;;;;;;;;;;5025454;28;20771;-76
2024/03/16 08:09:22;;;;;;;0.20;0.20;;;;;;;;;;5030777;28;20231;-77
2024/03/16 08:11:53;;;;;;;0.20;0.20;;;;;;;;;;5025084;28;20227;-77
2024/03/16 08:14:22;;;;;;;0.77;0.77;;;;;;;;;;5028418;28;20298;-75
2024/03/16 08:16:49;;;;;;;0.30;0.30;;;;;;;;;;5017836;28;20240;-77
2024/03/16 08:19:16;;;;;;;0.30;0.30;;;;;;;;;;5007600;28;20259;-75
2024/03/16 08:21:48;;;;;;;0.30;0.30;;;;;;;;;;5006427;28;20306;-76
2024/03/16 08:24:16;;;;;;;0.30;0.30;;;;;;;;;;4991407;28;20224;-75
2024/03/16 08:26:50;;;;;;;0.30;0.30;;;;;;;;;;5005355;28;20757;-76
2024/03/16 08:29:18;;;;;;;0.30;0.30;;;;;;;;;;5010729;28;20315;-75
2024/03/16 08:31:46;;;;;;;0.30;0.30;;;;;;;;;;5023908;28;20662;-75
2024/03/16 08:34:16;;;;;;;0.30;0.30;;;;;;;;;;5023899;28;20398;-75
2024/03/16 08:36:51;;;;;;;0.30;0.30;;;;;;;;;;5020280;28;20612;-75
2024/03/16 08:39:38;;;;;;;0.50;0.50;;;;;;;;;;5027004;28;20234;-75
2024/03/16 08:42:09;;;;;;;0.50;0.50;;;;;;;;;;4993135;28;20220;-75
2024/03/16 08:44:37;;;;;;;0.30;0.30;;;;;;;;;;5025062;28;20232;-76
2024/03/16 08:47:06;;;;;;;0.30;0.30;;;;;;;;;;5022939;28;20247;-75
2024/03/16 08:49:35;;;;;;;0.20;0.20;;;;;;;;;;5025192;28;20726;-75
2024/03/16 08:52:06;;;;;;;0.20;0.20;;;;;;;;;;4988978;28;20233;-76
2024/03/16 08:54:34;;;;;;;0.30;0.30;;;;;;;;;;5005790;28;20331;-75
2024/03/16 08:57:04;;;;;;;0.20;0.20;;;;;;;;;;5015894;28;20783;-75
2024/03/16 08:59:32;;;;;;;0.30;0.30;;;;;;;;;;5007964;28;20220;-75
2024/03/16 09:02:01;;;;;;;0.70;0.70;;;;;;;;;;5020330;28;20314;-75
2024/03/16 09:04:32;;;;;;;0.30;0.30;;;;;;;;;;5025464;28;20255;-76
2024/03/16 09:07:01;;;;;;;0.27;0.27;;;;;;;;;;5023092;28;20313;-75
2024/03/16 09:09:52;;;;;;;0.30;0.30;;;;;;;;;;5009362;28;20234;-75
2024/03/16 09:12:46;;;;;;;0.30;0.30;;;;;;;;;;5004746;28;20753;-76
2024/03/16 09:15:33;;;;;;;0.20;0.20;;;;;;;;;;5005814;28;20760;-75
2024/03/16 09:18:25;;;;;;;0.20;0.20;;;;;;;;;;5015163;28;20235;-74
2024/03/16 09:21:23;;;;;;;0.30;0.30;;;;;;;;;;5034776;28;20223;-75
2024/03/16 09:23:58;;;;;;;0.40;0.40;;;;;;;;;;4988796;28;20312;-74
2024/03/16 09:26:46;;;;;;;0.30;0.30;;;;;;;;;;5020458;28;20273;-74
2024/03/16 09:29:46;;;;;;;0.20;0.20;;;;;;;;;;5025663;28;20723;-74
2024/03/16 09:32:47;;;;;;;0.30;0.30;;;;;;;;;;5000632;28;20818;-74
2024/03/16 09:35:39;;;;;;;0.30;0.30;;;;;;;;;;5018113;28;20228;-74
2024/03/16 09:38:35;;;;;;;0.30;0.30;;;;;;;;;;5013570;28;20241;-74
2024/03/16 09:41:26;;;;;;;0.23;0.23;;;;;;;;;;5038210;28;20631;-74
2024/03/16 09:43:56;;;;;;;0.30;0.30;;;;;;;;;;5012517;28;20661;-74
2024/03/16 09:46:35;;;;;;;0.30;0.30;;;;;;;;;;4998227;28;20251;-74
2024/03/16 09:49:08;;;;;;;0.30;0.30;;;;;;;;;;5019273;28;20583;-73
2024/03/16 09:51:47;;;;;;;0.30;0.30;;;;;;;;;;5010960;28;20226;-74
2024/03/16 09:54:14;;;;;;;0.27;0.27;;;;;;;;;;4984623;28;20239;-74
2024/03/16 09:56:41;;;;;;;1.43;0.97;;;;;;;;;;5017543;28;20236;-73
2024/03/16 09:59:16;;;;;;;2.33;1.07;;;;;;;;;;5004983;28;20233;-74
2024/03/16 10:01:44;;;;;;;0.30;0.30;;;;;;;;;;4978917;28;20237;-73
2024/03/16 10:04:12;;;;;;;0.67;0.67;;;;;;;;;;4987422;28;20232;-74
2024/03/16 10:06:47;;;;;;;0.50;0.50;;;;;;;;;;4990330;28;20239;-74
2024/03/16 10:09:18;;;;;;;0.30;0.30;;;;;;;;;;4983748;28;20311;-75
2024/03/16 10:11:45;;;;;;;0.50;0.50;;;;;;;;;;4983232;28;20712;-74
2024/03/16 10:14:27;;;;;;;0.30;0.30;;;;;;;;;;4966009;28;20224;-74
2024/03/16 10:17:24;;;;;;;0.52;0.52;;;;;;;;;;4997155;28;20228;-74
2024/03/16 10:20:15;;;;;;;0.30;0.30;;;;;;;;;;4989481;28;20224;-74
2024/03/16 10:22:48;;;;;;;0.30;0.30;;;;;;;;;;4986314;28;20220;-74
2024/03/16 10:25:22;;;;;;;0.30;0.30;;;;;;;;;;4999815;28;20239;-74
2024/03/16 10:27:49;;;;;;;7.63;0.83;;;;;;;;;;5007451;28;20228;-74
2024/03/16 10:30:16;;;;;;;0.30;0.30;;;;;;;;;;5011520;28;20228;-74
2024/03/16 10:32:54;;;;;;;0.95;0.75;;;;;;;;;;4993496;28;20231;-74
2024/03/16 10:35:30;;;;;;;0.30;0.30;;;;;;;;;;5009576;28;21372;-74
2024/03/16 10:37:57;;;;;;;0.60;0.60;;;;;;;;;;4995423;28;20227;-75
2024/03/16 10:40:25;;;;;;;0.30;0.30;;;;;;;;;;5002895;28;20462;-75
2024/03/16 10:42:53;;;;;;;0.30;0.30;;;;;;;;;;5004320;28;20495;-74
2024/03/16 10:45:24;;;;;;;0.40;0.40;;;;;;;;;;5005429;28;20230;-74
2024/03/16 10:48:08;;;;;;;0.33;0.33;;;;;;;;;;5012802;28;20732;-74
2024/03/16 10:50:36;;;;;;;0.30;0.30;;;;;;;;;;4991265;28;20221;-74
2024/03/16 10:53:05;;;;;;;0.30;0.30;;;;;;;;;;5007155;28;20652;-74
2024/03/16 10:55:33;;;;;;;0.40;0.40;;;;;;;;;;4999860;28;20228;-73
2024/03/16 10:58:00;;;;;;;0.30;0.30;;;;;;;;;;4982693;28;20237;-74
2024/03/16 11:00:34;;;;;;;0.30;0.30;;;;;;;;;;4990920;28;20244;-74
2024/03/16 11:03:48;;;;;;;0.30;0.30;;;;;;;;;;5005099;28;20224;-74
2024/03/16 11:05:54;;;;;;;0.40;0.40;;;;;;;;;;5006356;28;20232;-74
2024/03/16 11:08:36;;;;;;;0.30;0.30;;;;;;;;;;5003233;28;20262;-74
2024/03/16 11:11:08;;;;;;;0.30;0.30;;;;;;;;;;5002629;28;20224;-74
2024/03/16 11:13:39;;;;;;;0.73;0.73;;;;;;;;;;4999480;28;20236;-73
2024/03/16 11:16:26;;;;;;;0.30;0.30;;;;;;;;;;4977771;28;20236;-74
2024/03/16 11:18:58;;;;;;;0.30;0.30;;;;;;;;;;4967717;28;20733;-75
2024/03/16 11:21:33;;;;;;;0.63;0.63;;;;;;;;;;4994393;28;20256;-74
2024/03/16 11:24:21;;;;;;;0.30;0.30;;;;;;;;;;4992642;28;20236;-74
2024/03/16 11:26:53;;;;;;;0.55;0.55;;;;;;;;;;5007197;28;20235;-74
2024/03/16 11:29:25;;;;;;;0.43;0.43;;;;;;;;;;4994204;28;21739;-74
2024/03/16 11:31:57;;;;;;;0.30;0.30;;;;;;;;;;5003454;28;20234;-74
2024/03/16 11:34:37;;;;;;;0.30;0.30;;;;;;;;;;5008236;28;20599;-73
2024/03/16 11:37:07;;;;;;;0.30;0.30;;;;;;;;;;4991268;28;20235;-74
2024/03/16 11:39:39;;;;;;;0.30;0.30;;;;;;;;;;4982844;28;20310;-74
2024/03/16 11:42:15;;;;;;;0.30;0.30;;;;;;;;;;5008730;28;20785;-74
2024/03/16 11:44:47;;;;;;;0.30;0.30;;;;;;;;;;4991568;28;20735;-75
2024/03/16 11:47:21;;;;;;;0.30;0.30;;;;;;;;;;5017849;28;20231;-75
2024/03/16 11:50:20;;;;;;;0.32;0.32;;;;;;;;;;5000924;28;20243;-74
2024/03/16 11:52:49;;;;;;;0.43;0.43;;;;;;;;;;5012602;28;20239;-75
2024/03/16 11:55:21;;;;;;;0.30;0.30;;;;;;;;;;4996851;28;20262;-74
2024/03/16 11:57:49;;;;;;;1.48;0.60;;;;;;;;;;5013217;28;20236;-74
2024/03/16 12:00:17;;;;;;;0.50;0.50;;;;;;;;;;4981800;28;20246;-77
2024/03/16 12:02:46;;;;;;;1.58;0.93;;;;;;;;;;5008351;28;20236;-78
2024/03/16 12:05:14;;;;;;;0.30;0.30;;;;;;;;;;4999706;28;20293;-78
2024/03/16 12:07:46;;;;;;;0.30;0.30;;;;;;;;;;4987562;28;20232;-80
2024/03/16 12:10:14;;;;;;;0.40;0.40;;;;;;;;;;5010156;28;20599;-77
2024/03/16 12:12:43;;;;;;;0.30;0.30;;;;;;;;;;5008577;28;20587;-75
2024/03/16 12:15:22;;;;;;;0.30;0.30;;;;;;;;;;4977475;28;20311;-75
2024/03/16 12:17:51;;;;;;;0.45;0.45;;;;;;;;;;4981211;28;20652;-75
2024/03/16 12:20:17;;;;;;;0.30;0.30;;;;;;;;;;4969080;28;20228;-74
2024/03/16 12:22:56;;;;;;;0.45;0.38;;;;;;;;;;5003041;28;20254;-75
2024/03/16 12:25:27;;;;;;;0.30;0.30;;;;;;;;;;4992324;28;20227;-75
2024/03/16 12:28:05;;;;;;;0.30;0.30;;;;;;;;;;4939220;28;20240;-79
2024/03/16 12:30:42;;;;;;;0.30;0.30;;;;;;;;;;4997944;28;20231;-74
2024/03/16 12:33:50;;;;;;;0.50;0.50;;;;;;;;;;5020828;28;20232;-74
2024/03/16 12:36:41;;;;;;;0.30;0.30;;;;;;;;;;4990429;28;20701;-74
2024/03/16 12:39:14;;;;;;;0.30;0.30;;;;;;;;;;4984010;28;20241;-74
2024/03/16 12:42:05;;;;;;;2.17;0.93;;;;;;;;;;4981741;28;20231;-74
2024/03/16 12:44:46;;;;;;;0.30;0.30;;;;;;;;;;5023879;28;20242;-74
2024/03/16 12:47:14;;;;;;;0.30;0.30;;;;;;;;;;5004925;28;20278;-74
2024/03/16 12:49:42;;;;;;;0.30;0.30;;;;;;;;;;5029067;28;20262;-75
2024/03/16 12:52:16;;;;;;;0.43;0.43;;;;;;;;;;5006516;28;20239;-74
2024/03/16 12:54:44;;;;;;;0.68;0.68;;;;;;;;;;4987583;28;20240;-74
2024/03/16 12:57:13;;;;;;;0.50;0.50;;;;;;;;;;5002982;28;20224;-74
2024/03/16 12:59:40;;;;;;;0.30;0.30;;;;;;;;;;4998516;28;20239;-75
2024/03/16 13:02:11;;;;;;;0.30;0.30;;;;;;;;;;4999245;28;20728;-74
2024/03/16 13:04:39;;;;;;;0.30;0.30;;;;;;;;;;5006823;28;20236;-75
2024/03/16 13:07:06;;;;;;;1.17;1.05;;;;;;;;;;5013725;28;20365;-75
2024/03/16 13:09:38;;;;;;;0.30;0.30;;;;;;;;;;5012192;28;20236;-74
2024/03/16 13:12:10;;;;;;;0.30;0.30;;;;;;;;;;5004633;28;20227;-75
2024/03/16 13:14:39;;;;;;;0.32;0.32;;;;;;;;;;5012570;28;20228;-74
2024/03/16 13:17:07;;;;;;;0.30;0.30;;;;;;;;;;5008786;28;20235;-75
2024/03/16 13:19:33;;;;;;;0.60;0.40;;;;;;;;;;5009858;28;20235;-75
2024/03/16 13:22:11;;;;;;;0.30;0.30;;;;;;;;;;5016941;28;20239;-74
2024/03/16 13:24:41;;;;;;;0.30;0.30;;;;;;;;;;5021537;28;20236;-75
2024/03/16 13:27:13;;;;;;;0.40;0.40;;;;;;;;;;4984474;28;20303;-74
2024/03/16 13:29:45;;;;;;;0.30;0.30;;;;;;;;;;4995564;28;20608;-74
2024/03/16 13:32:11;;;;;;;0.30;0.30;;;;;;;;;;4992487;28;20231;-74
2024/03/16 13:34:47;;;;;;;0.30;0.30;;;;;;;;;;5017208;28;20217;-80
2024/03/16 13:37:25;;;;;;;0.40;0.40;;;;;;;;;;5015239;28;20285;-78
2024/03/16 13:40:18;;;;;;;0.20;0.20;;;;;;;;;;5017309;28;20231;-79
2024/03/16 13:42:47;;;;;;;0.30;0.30;;;;;;;;;;5011667;28;20278;-79
2024/03/16 13:45:20;;;;;;;0.30;0.30;;;;;;;;;;5017591;28;20630;-77
2024/03/16 13:48:07;;;;;;;0.40;0.40;;;;;;;;;;5006416;28;21099;-74
2024/03/16 13:50:33;;;;;;;0.50;0.50;;;;;;;;;;5014779;28;20233;-74
2024/03/16 13:53:04;;;;;;;0.30;0.30;;;;;;;;;;5008725;28;20231;-74
2024/03/16 13:55:31;;;;;;;0.40;0.40;;;;;;;;;;5004611;28;20237;-75
2024/03/16 13:57:58;;;;;;;0.40;0.40;;;;;;;;;;4996864;28;20235;-74
2024/03/16 14:00:26;;;;;;;0.40;0.40;;;;;;;;;;5004637;28;20227;-74
2024/03/16 14:03:08;;;;;;;0.30;0.30;;;;;;;;;;5010860;28;20236;-75
2024/03/16 14:05:41;;;;;;;0.30;0.30;;;;;;;;;;5016305;28;20246;-75
2024/03/16 14:08:12;;;;;;;0.40;0.40;;;;;;;;;;5019479;28;20651;-74
2024/03/16 14:10:40;;;;;;;0.40;0.40;;;;;;;;;;4991954;28;20732;-74
2024/03/16 14:13:12;;;;;;;0.30;0.30;;;;;;;;;;5022127;28;20245;-74
2024/03/16 14:15:44;;;;;;;0.30;0.30;;;;;;;;;;5009102;28;20290;-75
2024/03/16 14:18:17;;;;;;;0.35;0.35;;;;;;;;;;5007685;28;20236;-74
2024/03/16 14:20:47;;;;;;;0.30;0.30;;;;;;;;;;4990690;28;20224;-74
2024/03/16 14:23:30;;;;;;;0.30;0.30;;;;;;;;;;4995038;28;20233;-74
2024/03/16 14:26:08;;;;;;;0.30;0.30;;;;;;;;;;4981980;28;20228;-76
2024/03/16 14:28:35;;;;;;;0.30;0.30;;;;;;;;;;4999726;28;20272;-75
2024/03/16 14:31:14;;;;;;;0.60;0.60;;;;;;;;;;4989016;28;20232;-75
2024/03/16 14:33:41;;;;;;;0.82;0.82;;;;;;;;;;4977835;28;20236;-74
2024/03/16 14:36:13;;;;;;;0.50;0.50;;;;;;;;;;5011542;28;20228;-74
2024/03/16 14:38:49;;;;;;;0.30;0.30;;;;;;;;;;5007379;28;20317;-78
2024/03/16 14:41:42;;;;;;;0.30;0.30;;;;;;;;;;5019165;28;20223;-79
2024/03/16 14:44:28;;;;;;;0.60;0.60;;;;;;;;;;5005809;28;20224;-78
2024/03/16 14:46:59;;;;;;;0.20;0.20;;;;;;;;;;4997920;28;20600;-78
2024/03/16 14:49:31;;;;;;;0.30;0.30;;;;;;;;;;5003296;28;20228;-78
2024/03/16 14:52:02;;;;;;;0.40;0.40;;;;;;;;;;4980570;28;20242;-78
2024/03/16 14:54:48;;;;;;;0.43;0.43;;;;;;;;;;4987570;28;20225;-78
2024/03/16 14:57:23;;;;;;;0.30;0.30;;;;;;;;;;4999121;28;20232;-77
2024/03/16 15:00:00;;;;;;;0.30;0.30;;;;;;;;;;4983707;28;20582;-79
2024/03/16 15:02:31;;;;;;;0.30;0.30;;;;;;;;;;4943919;28;20251;-74
2024/03/16 15:05:21;;;;;;;1.25;0.93;;;;;;;;;;4996699;28;20239;-74
2024/03/16 15:07:52;;;;;;;0.30;0.30;;;;;;;;;;4986050;28;20239;-74
2024/03/16 15:10:29;;;;;;;0.40;0.40;;;;;;;;;;4998778;28;20243;-75
2024/03/16 15:12:58;;;;;;;0.38;0.38;;;;;;;;;;4969831;28;20240;-74
2024/03/16 15:15:29;;;;;;;0.30;0.30;;;;;;;;;;4971660;28;20724;-74
2024/03/16 15:17:57;;;;;;;0.30;0.30;;;;;;;;;;5001704;28;20293;-74
2024/03/16 15:20:28;;;;;;;0.30;0.30;;;;;;;;;;5031372;28;20238;-74
2024/03/16 15:22:58;;;;;;;0.68;0.68;;;;;;;;;;5000437;28;20652;-74
2024/03/16 15:26:04;;;;;;;0.38;0.38;;;;;;;;;;4967302;28;20705;-74
2024/03/16 15:28:36;;;;;;;0.30;0.30;;;;;;;;;;4994456;28;20228;-73
2024/03/16 15:31:02;;;;;;;0.30;0.30;;;;;;;;;;4986404;28;20224;-74
2024/03/16 15:33:31;;;;;;;0.30;0.30;;;;;;;;;;5001751;28;20738;-74
2024/03/16 15:35:58;;;;;;;0.30;0.30;;;;;;;;;;4960270;28;20246;-76
2024/03/16 15:38:25;;;;;;;0.30;0.30;;;;;;;;;;4990293;28;20236;-74
2024/03/16 15:40:52;;;;;;;0.22;0.22;;;;;;;;;;4986327;28;20216;-75